createdAt,value
2022-11-25T00:01:21.154Z,8.53
2022-11-25T00:03:49.193Z,8.90
2022-11-25T00:06:19.179Z,8.60
2022-11-25T00:08:47.882Z,9.07
2022-11-25T00:11:15.245Z,8.83
2022-11-25T00:13:43.417Z,7.90
2022-11-25T00:16:13.000Z,8.30
2022-11-25T00:18:40.525Z,7.07
2022-11-25T00:21:08.788Z,8.50
2022-11-25T00:23:36.499Z,8.73
2022-11-25T00:26:10.144Z,8.37
2022-11-25T00:28:45.256Z,7.67
2022-11-25T00:31:18.253Z,7.43
2022-11-25T00:33:45.384Z,7.63
2022-11-25T00:36:15.076Z,7.37
2022-11-25T00:38:41.696Z,6.40
2022-11-25T00:41:27.081Z,7.60
2022-11-25T00:44:13.381Z,6.90
2022-11-25T00:46:40.140Z,8.00
2022-11-25T00:49:07.357Z,7.77
2022-11-25T00:51:34.082Z,7.77
2022-11-25T00:54:00.865Z,8.17
2022-11-25T00:56:27.535Z,7.77
2022-11-25T00:58:54.288Z,9.03
2022-11-25T01:01:21.029Z,9.00
2022-11-25T01:03:52.106Z,9.63
2022-11-25T01:06:18.841Z,8.57
2022-11-25T01:08:45.635Z,8.73
2022-11-25T01:11:14.618Z,9.47
2022-11-25T01:13:41.980Z,7.83
2022-11-25T01:16:11.471Z,9.10
2022-11-25T01:18:38.338Z,8.03
2022-11-25T01:21:10.263Z,8.60
2022-11-25T01:23:37.841Z,7.43
2022-11-25T01:26:06.237Z,7.43
2022-11-25T01:28:32.921Z,6.57
2022-11-25T01:31:04.239Z,7.67
2022-11-25T01:33:34.799Z,7.77
2022-11-25T01:36:07.270Z,7.30
2022-11-25T01:38:34.655Z,7.67
2022-11-25T01:41:02.514Z,7.37
2022-11-25T01:43:29.854Z,7.83
2022-11-25T01:46:21.524Z,7.73
2022-11-25T01:48:55.627Z,7.23
2022-11-25T01:51:29.011Z,7.30
2022-11-25T01:53:59.355Z,7.93
2022-11-25T01:56:30.747Z,7.30
2022-11-25T01:58:57.403Z,7.50
2022-11-25T02:01:24.177Z,7.80
2022-11-25T02:03:54.556Z,7.57
2022-11-25T02:06:31.477Z,6.90
2022-11-25T02:09:09.128Z,7.30
2022-11-25T02:11:38.741Z,8.17
2022-11-25T02:14:06.917Z,6.93
2022-11-25T02:16:33.629Z,6.80
2022-11-25T02:19:00.790Z,6.47
2022-11-25T02:21:40.175Z,7.67
2022-11-25T02:24:18.071Z,7.90
2022-11-25T02:26:44.850Z,6.80
2022-11-25T02:29:12.609Z,6.90
2022-11-25T02:31:39.424Z,6.77
2022-11-25T02:34:06.192Z,7.43
2022-11-25T02:36:34.346Z,7.73
2022-11-25T02:39:01.693Z,7.10
2022-11-25T02:41:33.030Z,7.03
2022-11-25T02:44:00.357Z,7.27
2022-11-25T02:46:28.448Z,7.17
2022-11-25T02:49:13.500Z,6.87
2022-11-25T02:51:46.616Z,6.77
2022-11-25T02:54:15.517Z,6.37
2022-11-25T02:56:42.497Z,7.50
2022-11-25T02:59:10.208Z,6.30
2022-11-25T03:01:38.298Z,7.33
2022-11-25T03:04:05.390Z,6.43
2022-11-25T03:06:32.765Z,6.37
2022-11-25T03:08:59.688Z,6.07
2022-11-25T03:11:46.640Z,6.17
2022-11-25T03:14:13.341Z,6.07
2022-11-25T03:16:40.113Z,7.00
2022-11-25T03:19:07.040Z,7.03
2022-11-25T03:21:33.917Z,7.23
2022-11-25T03:24:00.566Z,8.00
2022-11-25T03:26:27.228Z,6.70
2022-11-25T03:28:54.015Z,7.00
2022-11-25T03:31:20.666Z,6.30
2022-11-25T03:33:47.436Z,7.37
2022-11-25T03:36:14.071Z,6.87
2022-11-25T03:38:40.719Z,7.37
2022-11-25T03:41:07.362Z,6.90
2022-11-25T03:43:35.460Z,6.37
2022-11-25T03:46:02.251Z,5.77
2022-11-25T03:48:28.921Z,6.23
2022-11-25T03:50:56.218Z,6.27
2022-11-25T03:53:22.827Z,5.77
2022-11-25T03:55:49.556Z,5.43
2022-11-25T03:58:16.328Z,5.57
2022-11-25T04:00:43.017Z,5.30
2022-11-25T04:03:09.951Z,5.20
2022-11-25T04:05:36.648Z,5.73
2022-11-25T04:08:03.370Z,5.73
2022-11-25T04:10:30.018Z,4.80
2022-11-25T04:12:56.648Z,5.00
2022-11-25T04:15:23.263Z,4.63
2022-11-25T04:17:49.975Z,4.07
2022-11-25T04:20:16.759Z,4.73
2022-11-25T04:22:43.588Z,4.30
2022-11-25T04:25:10.968Z,5.00
2022-11-25T04:27:37.634Z,4.50
2022-11-25T04:30:05.604Z,5.63
2022-11-25T04:32:37.838Z,4.93
2022-11-25T04:35:05.076Z,4.07
2022-11-25T04:37:31.727Z,5.30
2022-11-25T04:39:58.341Z,4.80
2022-11-25T04:42:39.382Z,5.20
2022-11-25T04:45:24.832Z,6.37
2022-11-25T04:47:51.899Z,5.67
2022-11-25T04:50:21.225Z,6.63
2022-11-25T04:52:48.038Z,5.33
2022-11-25T04:55:14.841Z,6.23
2022-11-25T04:57:41.575Z,6.53
2022-11-25T05:00:09.902Z,6.10
2022-11-25T05:02:36.657Z,6.33
2022-11-25T05:05:03.563Z,6.97
2022-11-25T05:07:30.702Z,6.03
2022-11-25T05:09:57.880Z,5.97
2022-11-25T05:12:27.475Z,5.50
2022-11-25T05:14:54.672Z,6.33
2022-11-25T05:17:24.637Z,6.47
2022-11-25T05:19:51.989Z,5.40
2022-11-25T05:22:22.270Z,6.57
2022-11-25T05:24:49.034Z,5.83
2022-11-25T05:27:16.592Z,5.83
2022-11-25T05:29:43.281Z,5.40
2022-11-25T05:32:10.401Z,5.90
2022-11-25T05:34:37.834Z,6.30
2022-11-25T05:37:05.163Z,6.43
2022-11-25T05:39:31.823Z,6.20
2022-11-25T05:41:58.649Z,6.73
2022-11-25T05:44:25.482Z,5.63
2022-11-25T05:46:52.365Z,5.93
2022-11-25T05:49:19.631Z,5.07
2022-11-25T05:51:46.304Z,5.73
2022-11-25T05:54:13.165Z,5.83
2022-11-25T05:56:39.945Z,5.47
2022-11-25T05:59:06.782Z,6.20
2022-11-25T06:01:33.681Z,5.60
2022-11-25T06:04:04.706Z,6.33
2022-11-25T06:06:32.082Z,6.30
2022-11-25T06:08:58.952Z,6.60
2022-11-25T06:11:25.770Z,4.47
2022-11-25T06:13:52.484Z,5.60
2022-11-25T06:16:22.007Z,5.80
2022-11-25T06:18:49.103Z,5.50
2022-11-25T06:21:16.395Z,5.70
2022-11-25T06:23:45.401Z,5.23
2022-11-25T06:26:17.787Z,6.10
2022-11-25T06:31:38.570Z,6.50
2022-11-25T06:34:08.377Z,5.10
2022-11-25T06:36:35.070Z,6.17
2022-11-25T06:39:01.684Z,6.10
2022-11-25T06:41:28.357Z,5.70
2022-11-25T06:43:55.369Z,5.57
2022-11-25T06:46:25.117Z,5.97
2022-11-25T06:48:52.989Z,6.20
2022-11-25T06:51:19.744Z,6.10
2022-11-25T06:53:46.562Z,5.80
2022-11-25T06:56:14.596Z,5.90
2022-11-25T06:58:42.250Z,6.03
2022-11-25T07:01:14.863Z,6.17
2022-11-25T07:03:42.704Z,5.77
2022-11-25T07:06:11.510Z,6.60
2022-11-25T07:08:38.343Z,6.53
2022-11-25T07:11:07.604Z,6.60
2022-11-25T07:13:34.508Z,6.03
2022-11-25T07:16:06.314Z,6.57
2022-11-25T07:18:35.296Z,6.57
2022-11-25T07:21:16.821Z,7.30
2022-11-25T07:23:45.204Z,7.20
2022-11-25T07:26:15.152Z,6.57
2022-11-25T07:28:42.668Z,6.57
2022-11-25T07:31:31.490Z,6.77
2022-11-25T07:33:59.976Z,6.00
2022-11-25T07:36:27.289Z,6.13
2022-11-25T07:38:54.565Z,6.80
2022-11-25T07:41:23.934Z,6.70
2022-11-25T07:43:53.118Z,7.43
2022-11-25T07:46:26.496Z,6.50
2022-11-25T07:48:55.743Z,7.17
2022-11-25T07:51:39.997Z,7.40
2022-11-25T07:54:09.355Z,6.73
2022-11-25T07:56:37.405Z,7.07
2022-11-25T07:59:05.047Z,6.87
2022-11-25T08:01:31.939Z,6.70
2022-11-25T08:03:59.119Z,6.93
2022-11-25T08:06:28.799Z,6.60
2022-11-25T08:08:57.084Z,6.57
2022-11-25T08:11:29.099Z,7.27
2022-11-25T08:13:56.877Z,6.47
2022-11-25T08:16:27.242Z,7.37
2022-11-25T08:18:54.730Z,6.73
2022-11-25T08:21:21.468Z,6.60
2022-11-25T08:23:48.854Z,6.53
2022-11-25T08:26:30.055Z,6.87
2022-11-25T08:28:57.801Z,6.87
2022-11-25T08:31:27.532Z,7.60
2022-11-25T08:33:55.287Z,7.67
2022-11-25T08:36:22.699Z,7.57
2022-11-25T08:38:52.077Z,8.10
2022-11-25T08:41:28.817Z,6.87
2022-11-25T08:43:56.655Z,7.30
2022-11-25T08:46:26.246Z,7.77
2022-11-25T08:48:53.668Z,7.37
2022-11-25T08:51:23.470Z,7.50
2022-11-25T08:53:53.625Z,7.37
2022-11-25T08:56:25.948Z,8.70
2022-11-25T08:58:56.971Z,9.57
2022-11-25T09:01:25.043Z,10.00
2022-11-25T09:03:55.395Z,11.23
2022-11-25T09:06:22.979Z,9.70
2022-11-25T09:08:49.935Z,9.93
2022-11-25T09:11:16.883Z,8.47
2022-11-25T09:13:43.795Z,9.53
2022-11-25T09:16:10.698Z,9.53
2022-11-25T09:18:37.486Z,10.80
2022-11-25T09:21:12.221Z,10.77
2022-11-25T09:23:39.833Z,11.20
2022-11-25T09:26:07.839Z,12.63
2022-11-25T09:28:35.566Z,12.90
2022-11-25T09:31:09.380Z,13.00
2022-11-25T09:33:36.615Z,11.67
2022-11-25T09:36:04.043Z,11.07
2022-11-25T09:38:31.050Z,11.30
2022-11-25T09:41:15.615Z,11.97
2022-11-25T09:44:12.039Z,11.33
2022-11-25T09:46:57.164Z,10.63
2022-11-25T09:49:53.518Z,11.50
2022-11-25T09:52:38.734Z,11.47
2022-11-25T09:55:26.002Z,11.03
2022-11-25T09:58:20.539Z,11.23
2022-11-25T10:00:50.066Z,10.50
2022-11-25T10:03:29.224Z,11.13
2022-11-25T10:06:04.583Z,11.33
2022-11-25T10:08:44.246Z,10.53
2022-11-25T10:12:07.302Z,11.80
2022-11-25T10:14:49.597Z,9.97
2022-11-25T10:17:59.159Z,10.83
2022-11-25T10:20:41.992Z,10.83
2022-11-25T10:23:35.552Z,10.00
2022-11-25T10:26:13.728Z,11.33
2022-11-25T10:28:46.247Z,11.27
2022-11-25T10:31:20.002Z,11.87
2022-11-25T10:33:57.318Z,11.80
2022-11-25T10:36:38.133Z,10.40
2022-11-25T10:39:13.228Z,10.30
2022-11-25T10:41:59.462Z,10.40
2022-11-25T10:44:31.626Z,10.67
2022-11-25T10:47:36.327Z,9.40
2022-11-25T10:50:08.987Z,10.13
2022-11-25T10:52:41.061Z,9.70
2022-11-25T10:55:14.825Z,9.90
2022-11-25T10:57:42.002Z,9.47
2022-11-25T11:00:35.236Z,10.10
2022-11-25T11:03:25.966Z,9.27
2022-11-25T11:05:54.183Z,9.60
2022-11-25T11:08:39.552Z,10.17
2022-11-25T11:11:17.108Z,10.00
2022-11-25T11:13:44.933Z,8.43
2022-11-25T11:16:39.833Z,9.43
2022-11-25T11:19:06.531Z,9.07
2022-11-25T11:21:34.593Z,9.07
2022-11-25T11:24:02.563Z,10.00
2022-11-25T11:26:36.146Z,9.53
2022-11-25T11:29:09.781Z,9.93
2022-11-25T11:31:46.559Z,8.57
2022-11-25T11:34:37.894Z,9.67
2022-11-25T11:37:17.622Z,9.40
2022-11-25T11:40:02.435Z,9.90
2022-11-25T11:42:53.092Z,9.00
2022-11-25T11:45:44.444Z,9.30
2022-11-25T11:48:36.318Z,9.17
2022-11-25T11:51:21.779Z,8.50
2022-11-25T11:54:07.887Z,8.40
2022-11-25T11:56:50.658Z,8.77
2022-11-25T11:59:34.215Z,8.53
2022-11-25T12:02:04.028Z,9.47
2022-11-25T12:05:02.410Z,9.17
2022-11-25T12:07:53.796Z,8.57
2022-11-25T12:10:38.648Z,8.43
2022-11-25T12:13:26.709Z,8.83
2022-11-25T12:16:00.861Z,8.47
2022-11-25T12:18:51.217Z,9.70
2022-11-25T12:21:44.055Z,8.10
2022-11-25T12:24:16.866Z,5.83
2022-11-25T12:27:05.552Z,6.63
2022-11-25T12:29:40.084Z,6.60
2022-11-25T12:32:35.414Z,5.63
2022-11-25T12:35:14.417Z,6.13
2022-11-25T12:37:56.444Z,7.00
2022-11-25T12:40:37.425Z,5.33
2022-11-25T12:43:31.261Z,5.37
2022-11-25T12:46:33.899Z,5.03
2022-11-25T12:49:01.223Z,5.07
2022-11-25T12:51:40.086Z,4.57
2022-11-25T12:54:28.053Z,4.77
2022-11-25T12:57:10.311Z,5.20
2022-11-25T13:00:39.857Z,6.17
2022-11-25T13:03:09.319Z,5.70
2022-11-25T13:05:54.150Z,5.50
2022-11-25T13:08:51.758Z,5.30
2022-11-25T13:11:40.647Z,5.57
2022-11-25T13:14:46.188Z,5.57
2022-11-25T13:17:16.781Z,5.13
2022-11-25T13:19:43.882Z,5.63
2022-11-25T13:22:31.058Z,5.73
2022-11-25T13:24:58.543Z,5.53
2022-11-25T13:27:40.214Z,6.43
2022-11-25T13:30:32.832Z,6.10
2022-11-25T13:33:11.957Z,7.03
2022-11-25T13:35:44.557Z,6.50
2022-11-25T13:38:29.721Z,7.27
2022-11-25T13:41:16.739Z,8.00
2022-11-25T13:44:13.112Z,9.27
2022-11-25T13:46:42.201Z,9.77
2022-11-25T13:49:47.664Z,9.87
2022-11-25T13:52:14.408Z,9.27
2022-11-25T13:54:55.117Z,11.17
2022-11-25T13:57:25.115Z,9.93
2022-11-25T14:00:01.133Z,8.77
2022-11-25T14:02:28.213Z,8.50
2022-11-25T14:05:16.288Z,7.83
2022-11-25T14:08:10.867Z,7.50
2022-11-25T14:10:58.762Z,7.03
2022-11-25T14:13:44.307Z,6.60
2022-11-25T14:16:38.283Z,9.93
2022-11-25T14:19:51.729Z,8.87
2022-11-25T14:22:39.521Z,7.37
2022-11-25T14:25:22.614Z,6.73
2022-11-25T14:28:02.342Z,5.87
2022-11-25T14:30:31.497Z,5.47
2022-11-25T14:33:10.007Z,4.77
2022-11-25T14:35:45.404Z,4.00
2022-11-25T14:38:52.159Z,5.10
2022-11-25T14:41:37.329Z,5.43
2022-11-25T14:44:07.363Z,5.10
2022-11-25T14:46:34.037Z,5.63
2022-11-25T14:49:03.262Z,5.40
2022-11-25T14:51:37.819Z,4.73
2022-11-25T14:54:08.843Z,4.57
2022-11-25T14:56:36.980Z,5.17
2022-11-25T14:59:03.963Z,4.53
2022-11-25T15:01:34.601Z,3.03
2022-11-25T15:04:24.108Z,2.60
2022-11-25T15:07:00.716Z,2.20
2022-11-25T15:09:38.909Z,2.00
2022-11-25T15:12:11.549Z,2.20
2022-11-25T15:14:41.862Z,1.93
2022-11-25T15:17:17.186Z,1.60
2022-11-25T15:19:43.939Z,1.30
2022-11-25T15:22:29.000Z,2.17
2022-11-25T15:25:06.355Z,2.20
2022-11-25T15:27:33.330Z,1.90
2022-11-25T15:29:59.997Z,2.50
2022-11-25T15:32:29.808Z,2.60
2022-11-25T15:35:01.373Z,2.73
2022-11-25T15:37:29.094Z,2.17
2022-11-25T15:40:29.694Z,3.17
2022-11-25T15:43:02.374Z,3.40
2022-11-25T15:45:44.311Z,4.70
2022-11-25T15:48:37.098Z,3.87
2022-11-25T15:51:34.909Z,3.03
2022-11-25T15:54:13.400Z,2.83
2022-11-25T15:56:45.479Z,2.67
2022-11-25T15:59:37.780Z,2.33
2022-11-25T16:02:27.428Z,2.10
2022-11-25T16:05:09.062Z,1.93
2022-11-25T16:07:36.145Z,2.27
2022-11-25T16:10:03.317Z,2.30
2022-11-25T16:12:30.027Z,2.40
2022-11-25T16:14:56.740Z,2.57
2022-11-25T16:17:23.495Z,2.70
2022-11-25T16:19:50.266Z,3.00
2022-11-25T16:22:20.191Z,3.17
2022-11-25T16:24:50.506Z,2.90
2022-11-25T16:27:23.954Z,2.47
2022-11-25T16:30:04.309Z,3.20
2022-11-25T16:32:32.346Z,2.80
2022-11-25T16:35:12.765Z,2.97
2022-11-25T16:37:42.729Z,3.43
2022-11-25T16:40:13.448Z,3.57
2022-11-25T16:42:40.522Z,3.83
2022-11-25T16:45:20.030Z,4.17
2022-11-25T16:47:46.755Z,4.63
2022-11-25T16:50:18.127Z,4.77
2022-11-25T16:52:45.362Z,4.80
2022-11-25T16:55:12.614Z,4.70
2022-11-25T16:57:41.656Z,4.80
2022-11-25T17:00:14.426Z,5.10
2022-11-25T17:02:41.232Z,5.27
2022-11-25T17:05:21.417Z,4.77
2022-11-25T17:07:52.284Z,4.83
2022-11-25T17:10:22.440Z,4.60
2022-11-25T17:12:49.927Z,4.40
2022-11-25T17:15:19.350Z,5.13
2022-11-25T17:17:47.887Z,4.20
2022-11-25T17:20:16.731Z,4.73
2022-11-25T17:22:43.572Z,3.63
2022-11-25T17:25:12.723Z,3.30
2022-11-25T17:27:40.051Z,4.07
2022-11-25T17:30:13.707Z,3.57
2022-11-25T17:32:40.432Z,3.30
2022-11-25T17:35:17.665Z,3.50
2022-11-25T17:37:44.887Z,2.93
2022-11-25T17:40:12.581Z,3.87
2022-11-25T17:42:39.729Z,3.60
2022-11-25T17:45:15.016Z,4.00
2022-11-25T17:47:42.345Z,4.00
2022-11-25T17:50:16.254Z,3.30
2022-11-25T17:52:43.146Z,3.63
2022-11-25T17:55:10.226Z,3.30
2022-11-25T17:57:37.301Z,3.10
2022-11-25T18:00:07.396Z,3.43
2022-11-25T18:02:34.085Z,4.53
2022-11-25T18:05:01.501Z,5.60
2022-11-25T18:07:28.279Z,5.17
2022-11-25T18:09:55.027Z,6.00
2022-11-25T18:12:28.436Z,5.80
2022-11-25T18:14:55.763Z,6.33
2022-11-25T18:17:22.883Z,4.63
2022-11-25T18:19:54.665Z,4.53
2022-11-25T18:22:23.621Z,4.10
2022-11-25T18:24:50.510Z,4.50
2022-11-25T18:27:23.652Z,7.43
2022-11-25T18:29:51.383Z,4.50
2022-11-25T18:32:18.693Z,5.87
2022-11-25T18:34:45.763Z,4.13
2022-11-25T18:37:12.812Z,5.07
2022-11-25T18:39:39.928Z,4.33
2022-11-25T18:42:07.972Z,4.23
2022-11-25T18:44:43.509Z,4.10
2022-11-25T18:47:13.350Z,5.17
2022-11-25T18:49:40.117Z,4.60
2022-11-25T18:52:06.844Z,4.83
2022-11-25T18:54:33.610Z,4.70
2022-11-25T18:57:00.466Z,3.90
2022-11-25T18:59:32.763Z,4.73
2022-11-25T19:01:59.773Z,3.40
2022-11-25T19:04:27.139Z,3.73
2022-11-25T19:06:53.919Z,3.53
2022-11-25T19:09:20.603Z,3.83
2022-11-25T19:11:51.407Z,4.57
2022-11-25T19:14:30.677Z,4.93
2022-11-25T19:17:01.811Z,5.20
2022-11-25T19:19:28.971Z,4.60
2022-11-25T19:21:55.862Z,4.20
2022-11-25T19:24:25.446Z,4.63
2022-11-25T19:26:55.983Z,4.40
2022-11-25T19:29:40.443Z,4.63
2022-11-25T19:32:21.827Z,5.30
2022-11-25T19:34:52.940Z,5.10
2022-11-25T19:37:21.477Z,5.50
2022-11-25T19:39:50.585Z,4.50
2022-11-25T19:42:17.625Z,3.93
2022-11-25T19:44:45.579Z,4.97
2022-11-25T19:47:19.257Z,5.03
2022-11-25T19:49:46.652Z,4.90
2022-11-25T19:52:20.262Z,5.33
2022-11-25T19:54:47.456Z,5.00
2022-11-25T19:57:20.301Z,5.20
2022-11-25T19:59:47.534Z,6.07
2022-11-25T20:02:19.205Z,5.57
2022-11-25T20:04:47.194Z,5.10
2022-11-25T20:07:16.733Z,4.93
2022-11-25T20:09:43.954Z,4.87
2022-11-25T20:12:31.044Z,4.77
2022-11-25T20:14:57.753Z,5.73
2022-11-25T20:17:33.748Z,5.63
2022-11-25T20:20:22.514Z,4.90
2022-11-25T20:22:59.717Z,4.97
2022-11-25T20:25:27.450Z,6.00
2022-11-25T20:27:54.436Z,6.57
2022-11-25T20:30:26.876Z,6.73
2022-11-25T20:32:53.665Z,5.50
2022-11-25T20:35:21.018Z,6.97
2022-11-25T20:37:53.729Z,7.80
2022-11-25T20:40:23.455Z,6.37
2022-11-25T20:42:51.332Z,7.53
2022-11-25T20:45:21.073Z,6.43
2022-11-25T20:47:50.869Z,5.63
2022-11-25T20:50:19.560Z,5.63
2022-11-25T20:52:48.376Z,5.93
2022-11-25T20:55:20.529Z,5.17
2022-11-25T20:57:48.117Z,5.90
2022-11-25T21:00:25.819Z,5.90
2022-11-25T21:02:54.167Z,5.13
2022-11-25T21:05:21.325Z,5.10
2022-11-25T21:07:49.833Z,5.60
2022-11-25T21:10:29.405Z,5.87
2022-11-25T21:12:56.807Z,5.57
2022-11-25T21:15:27.367Z,6.00
2022-11-25T21:17:54.205Z,5.00
2022-11-25T21:20:21.196Z,5.87
2022-11-25T21:22:52.161Z,6.00
2022-11-25T21:25:21.020Z,5.30
2022-11-25T21:27:48.741Z,6.13
2022-11-25T21:30:21.530Z,6.07
2022-11-25T21:32:48.560Z,6.17
2022-11-25T21:35:15.586Z,5.87
2022-11-25T21:37:43.716Z,6.47
2022-11-25T21:40:39.403Z,5.93
2022-11-25T21:43:17.119Z,6.00
2022-11-25T21:45:47.963Z,8.53
2022-11-25T21:48:23.574Z,8.07
2022-11-25T21:50:50.502Z,8.67
2022-11-25T21:53:17.224Z,8.73
2022-11-25T21:55:44.387Z,8.33
2022-11-25T21:58:18.381Z,7.77
2022-11-25T22:00:54.871Z,8.03
2022-11-25T22:03:23.807Z,6.73
2022-11-25T22:05:51.126Z,7.70
2022-11-25T22:08:18.366Z,5.40
2022-11-25T22:10:51.139Z,6.53
2022-11-25T22:13:27.511Z,6.40
2022-11-25T22:15:58.832Z,6.70
2022-11-25T22:18:29.970Z,6.57
2022-11-25T22:20:56.688Z,6.33
2022-11-25T22:23:23.586Z,5.20
2022-11-25T22:25:51.647Z,5.03
2022-11-25T22:28:24.180Z,6.73
2022-11-25T22:30:53.153Z,7.20
2022-11-25T22:33:24.307Z,6.93
2022-11-25T22:35:50.962Z,5.87
2022-11-25T22:38:18.661Z,5.67
2022-11-25T22:40:48.946Z,5.13
2022-11-25T22:43:18.645Z,5.60
2022-11-25T22:45:46.450Z,6.10
2022-11-25T22:48:16.989Z,5.03
2022-11-25T22:50:45.605Z,5.83
2022-11-25T22:53:17.956Z,6.47
2022-11-25T22:55:45.715Z,5.30
2022-11-25T22:58:14.342Z,5.57
2022-11-25T23:00:45.164Z,5.33
2022-11-25T23:03:19.855Z,4.97
2022-11-25T23:05:48.703Z,5.50
2022-11-25T23:08:18.591Z,5.20
2022-11-25T23:10:46.025Z,5.10
2022-11-25T23:13:14.521Z,4.90
2022-11-25T23:15:54.729Z,4.60
2022-11-25T23:18:27.554Z,4.93
2022-11-25T23:20:54.769Z,4.33
2022-11-25T23:23:29.394Z,5.00
2022-11-25T23:25:57.653Z,4.90
2022-11-25T23:28:24.971Z,4.47
2022-11-25T23:30:54.328Z,4.70
2022-11-25T23:33:29.081Z,4.97
2022-11-25T23:35:56.485Z,4.67
2022-11-25T23:38:26.093Z,4.63
2022-11-25T23:40:52.873Z,4.00
2022-11-25T23:43:20.080Z,4.17
2022-11-25T23:45:53.497Z,5.37
2022-11-25T23:48:23.631Z,4.80
2022-11-25T23:50:51.624Z,4.83
2022-11-25T23:53:24.910Z,4.70
2022-11-25T23:55:51.629Z,4.90
2022-11-25T23:58:20.327Z,4.60
